Saint Lawrence, South Dakota
Current Conditions -  °F | °C
As of 9:55 AM on Monday 22 Dec 2014 (Local Time) from KHON Reporting Station
Overcast Overcast  
Wind Chill: 24°   Ceiling: 5000
Heat Index: 30°   Visibility: 8mi
Dew Point: 28°   Wind: 6mph
Humidity: 92%   Direction: 330°NNW
Pressure: 29.44"   Gusts: NA
Location:  44.52°N, 98.94°W
Report Text: KHON 221555Z AUTO 33005KT 8SM SCT007 OVC050 M01/M02 A2944 RMK AO2 SLP982 T10111022
Loading
Personal Weather Stations






























Interactive Weather Map New forecast layout! Learn more

10-Day Weather Forecast

Advertisements
Track Severe Weather on mobile